sensor_id;sensor_type;location;lat;lon;timestamp;P1;durP1;ratioP1;P2;durP2;ratioP2
16199;SDS011;8207;52.494;4.654;2023-09-18T00:00:03;45.45;;;25.92;;
16199;SDS011;8207;52.494;4.654;2023-09-18T00:02:37;38.20;;;21.52;;
16199;SDS011;8207;52.494;4.654;2023-09-18T00:05:02;28.38;;;17.95;;
16199;SDS011;8207;52.494;4.654;2023-09-18T00:07:28;34.05;;;19.75;;
16199;SDS011;8207;52.494;4.654;2023-09-18T00:09:53;37.80;;;22.55;;
16199;SDS011;8207;52.494;4.654;2023-09-18T00:12:18;34.42;;;20.33;;
16199;SDS011;8207;52.494;4.654;2023-09-18T00:14:46;43.17;;;25.48;;
16199;SDS011;8207;52.494;4.654;2023-09-18T00:17:12;37.10;;;21.25;;
16199;SDS011;8207;52.494;4.654;2023-09-18T00:19:38;35.60;;;20.55;;
16199;SDS011;8207;52.494;4.654;2023-09-18T00:22:03;26.17;;;17.03;;
16199;SDS011;8207;52.494;4.654;2023-09-18T00:24:28;27.03;;;16.90;;
16199;SDS011;8207;52.494;4.654;2023-09-18T00:26:54;34.63;;;20.15;;
16199;SDS011;8207;52.494;4.654;2023-09-18T00:29:19;38.63;;;23.45;;
16199;SDS011;8207;52.494;4.654;2023-09-18T00:31:44;29.02;;;18.67;;
16199;SDS011;8207;52.494;4.654;2023-09-18T00:34:09;29.95;;;19.73;;
16199;SDS011;8207;52.494;4.654;2023-09-18T00:36:35;25.70;;;16.60;;
16199;SDS011;8207;52.494;4.654;2023-09-18T00:39:00;24.60;;;15.70;;
16199;SDS011;8207;52.494;4.654;2023-09-18T00:41:25;24.88;;;16.92;;
16199;SDS011;8207;52.494;4.654;2023-09-18T00:43:51;29.85;;;18.35;;
16199;SDS011;8207;52.494;4.654;2023-09-18T00:46:16;22.83;;;14.90;;
16199;SDS011;8207;52.494;4.654;2023-09-18T00:48:41;22.10;;;14.38;;
16199;SDS011;8207;52.494;4.654;2023-09-18T00:51:07;25.83;;;16.08;;
16199;SDS011;8207;52.494;4.654;2023-09-18T00:53:33;23.20;;;15.00;;
16199;SDS011;8207;52.494;4.654;2023-09-18T00:55:58;22.35;;;14.93;;
16199;SDS011;8207;52.494;4.654;2023-09-18T00:58:25;20.77;;;14.52;;
16199;SDS011;8207;52.494;4.654;2023-09-18T01:00:50;24.10;;;15.73;;
16199;SDS011;8207;52.494;4.654;2023-09-18T01:03:16;22.25;;;14.73;;
16199;SDS011;8207;52.494;4.654;2023-09-18T01:05:43;21.70;;;14.80;;
16199;SDS011;8207;52.494;4.654;2023-09-18T01:08:08;25.95;;;17.05;;
16199;SDS011;8207;52.494;4.654;2023-09-18T01:10:36;27.60;;;17.55;;
16199;SDS011;8207;52.494;4.654;2023-09-18T01:13:05;25.75;;;16.75;;
16199;SDS011;8207;52.494;4.654;2023-09-18T01:15:39;22.00;;;16.08;;
16199;SDS011;8207;52.494;4.654;2023-09-18T01:18:09;24.30;;;16.70;;
16199;SDS011;8207;52.494;4.654;2023-09-18T01:20:34;21.85;;;15.27;;
16199;SDS011;8207;52.494;4.654;2023-09-18T01:22:59;21.47;;;14.40;;
16199;SDS011;8207;52.494;4.654;2023-09-18T01:25:25;27.63;;;18.13;;
16199;SDS011;8207;52.494;4.654;2023-09-18T01:27:50;23.15;;;16.10;;
16199;SDS011;8207;52.494;4.654;2023-09-18T01:30:16;26.30;;;18.23;;
16199;SDS011;8207;52.494;4.654;2023-09-18T01:32:42;29.75;;;19.38;;
16199;SDS011;8207;52.494;4.654;2023-09-18T01:35:08;24.40;;;17.60;;
16199;SDS011;8207;52.494;4.654;2023-09-18T01:37:34;21.52;;;15.23;;
16199;SDS011;8207;52.494;4.654;2023-09-18T01:40:00;23.15;;;17.20;;
16199;SDS011;8207;52.494;4.654;2023-09-18T01:42:26;25.80;;;17.83;;
16199;SDS011;8207;52.494;4.654;2023-09-18T01:44:52;23.90;;;16.95;;
16199;SDS011;8207;52.494;4.654;2023-09-18T01:47:18;22.40;;;16.20;;
16199;SDS011;8207;52.494;4.654;2023-09-18T01:49:43;25.33;;;17.38;;
16199;SDS011;8207;52.494;4.654;2023-09-18T01:52:09;24.10;;;18.08;;
16199;SDS011;8207;52.494;4.654;2023-09-18T01:54:34;22.90;;;16.27;;
16199;SDS011;8207;52.494;4.654;2023-09-18T01:57:00;23.63;;;17.67;;
16199;SDS011;8207;52.494;4.654;2023-09-18T01:59:26;28.27;;;20.08;;
16199;SDS011;8207;52.494;4.654;2023-09-18T02:01:52;25.70;;;18.95;;
16199;SDS011;8207;52.494;4.654;2023-09-18T02:04:17;28.10;;;19.42;;
16199;SDS011;8207;52.494;4.654;2023-09-18T02:06:43;24.60;;;18.27;;
16199;SDS011;8207;52.494;4.654;2023-09-18T02:09:09;22.55;;;16.83;;
16199;SDS011;8207;52.494;4.654;2023-09-18T02:11:38;19.20;;;14.63;;
16199;SDS011;8207;52.494;4.654;2023-09-18T02:14:03;20.40;;;14.70;;
16199;SDS011;8207;52.494;4.654;2023-09-18T02:16:30;19.45;;;14.88;;
16199;SDS011;8207;52.494;4.654;2023-09-18T02:18:55;19.98;;;14.82;;
16199;SDS011;8207;52.494;4.654;2023-09-18T02:21:21;20.40;;;14.90;;
16199;SDS011;8207;52.494;4.654;2023-09-18T02:23:50;18.15;;;13.40;;
16199;SDS011;8207;52.494;4.654;2023-09-18T02:26:19;16.75;;;13.23;;
16199;SDS011;8207;52.494;4.654;2023-09-18T02:28:44;17.80;;;13.70;;
16199;SDS011;8207;52.494;4.654;2023-09-18T02:31:09;22.15;;;16.42;;
16199;SDS011;8207;52.494;4.654;2023-09-18T02:33:34;17.85;;;12.73;;
16199;SDS011;8207;52.494;4.654;2023-09-18T02:36:00;16.63;;;13.25;;
16199;SDS011;8207;52.494;4.654;2023-09-18T02:38:25;18.90;;;13.67;;
16199;SDS011;8207;52.494;4.654;2023-09-18T02:40:51;19.42;;;14.15;;
16199;SDS011;8207;52.494;4.654;2023-09-18T02:43:18;17.02;;;13.15;;
16199;SDS011;8207;52.494;4.654;2023-09-18T02:45:43;17.60;;;13.40;;
16199;SDS011;8207;52.494;4.654;2023-09-18T02:48:09;19.83;;;15.40;;
16199;SDS011;8207;52.494;4.654;2023-09-18T02:50:35;18.13;;;13.93;;
16199;SDS011;8207;52.494;4.654;2023-09-18T02:53:00;26.05;;;19.25;;
16199;SDS011;8207;52.494;4.654;2023-09-18T02:55:25;22.40;;;16.17;;
16199;SDS011;8207;52.494;4.654;2023-09-18T02:57:51;23.95;;;17.63;;
16199;SDS011;8207;52.494;4.654;2023-09-18T03:00:16;24.10;;;16.83;;
16199;SDS011;8207;52.494;4.654;2023-09-18T03:02:42;23.80;;;17.20;;
16199;SDS011;8207;52.494;4.654;2023-09-18T03:05:07;30.80;;;18.33;;
16199;SDS011;8207;52.494;4.654;2023-09-18T03:07:33;30.88;;;18.63;;
16199;SDS011;8207;52.494;4.654;2023-09-18T03:09:59;23.05;;;17.13;;
16199;SDS011;8207;52.494;4.654;2023-09-18T03:12:24;24.93;;;17.23;;
16199;SDS011;8207;52.494;4.654;2023-09-18T03:14:49;22.43;;;15.00;;
16199;SDS011;8207;52.494;4.654;2023-09-18T03:17:14;23.87;;;16.70;;
16199;SDS011;8207;52.494;4.654;2023-09-18T03:19:39;24.48;;;17.55;;
16199;SDS011;8207;52.494;4.654;2023-09-18T03:22:05;19.58;;;14.57;;
16199;SDS011;8207;52.494;4.654;2023-09-18T03:24:30;24.05;;;17.30;;
16199;SDS011;8207;52.494;4.654;2023-09-18T03:26:55;18.25;;;13.95;;
16199;SDS011;8207;52.494;4.654;2023-09-18T03:29:20;17.50;;;13.03;;
16199;SDS011;8207;52.494;4.654;2023-09-18T03:31:46;20.58;;;12.55;;
16199;SDS011;8207;52.494;4.654;2023-09-18T03:34:11;20.63;;;12.70;;
16199;SDS011;8207;52.494;4.654;2023-09-18T03:36:36;21.42;;;15.45;;
16199;SDS011;8207;52.494;4.654;2023-09-18T03:39:02;23.85;;;16.35;;
16199;SDS011;8207;52.494;4.654;2023-09-18T03:41:28;25.17;;;17.13;;
16199;SDS011;8207;52.494;4.654;2023-09-18T03:43:58;20.20;;;15.13;;
16199;SDS011;8207;52.494;4.654;2023-09-18T03:46:24;22.05;;;15.68;;
16199;SDS011;8207;52.494;4.654;2023-09-18T03:48:49;24.10;;;16.27;;
16199;SDS011;8207;52.494;4.654;2023-09-18T03:51:14;22.40;;;16.00;;
16199;SDS011;8207;52.494;4.654;2023-09-18T03:53:40;20.25;;;15.25;;
16199;SDS011;8207;52.494;4.654;2023-09-18T03:56:06;28.33;;;19.33;;
16199;SDS011;8207;52.494;4.654;2023-09-18T03:58:31;20.80;;;14.52;;
16199;SDS011;8207;52.494;4.654;2023-09-18T04:00:57;28.05;;;18.92;;
16199;SDS011;8207;52.494;4.654;2023-09-18T04:03:22;23.52;;;16.52;;
16199;SDS011;8207;52.494;4.654;2023-09-18T04:05:47;27.80;;;19.47;;
16199;SDS011;8207;52.494;4.654;2023-09-18T04:08:12;22.37;;;16.67;;
16199;SDS011;8207;52.494;4.654;2023-09-18T04:10:38;23.95;;;16.45;;
16199;SDS011;8207;52.494;4.654;2023-09-18T04:13:03;22.75;;;16.58;;
16199;SDS011;8207;52.494;4.654;2023-09-18T04:15:29;25.57;;;17.20;;
16199;SDS011;8207;52.494;4.654;2023-09-18T04:17:55;30.52;;;20.42;;
16199;SDS011;8207;52.494;4.654;2023-09-18T04:20:20;36.72;;;22.50;;
16199;SDS011;8207;52.494;4.654;2023-09-18T04:22:46;36.33;;;22.65;;
16199;SDS011;8207;52.494;4.654;2023-09-18T04:25:15;38.10;;;22.40;;
16199;SDS011;8207;52.494;4.654;2023-09-18T04:27:40;46.75;;;26.15;;
16199;SDS011;8207;52.494;4.654;2023-09-18T04:30:06;36.65;;;24.60;;
16199;SDS011;8207;52.494;4.654;2023-09-18T04:32:33;32.50;;;21.20;;
16199;SDS011;8207;52.494;4.654;2023-09-18T04:34:58;39.93;;;23.47;;
16199;SDS011;8207;52.494;4.654;2023-09-18T04:37:23;35.97;;;24.07;;
16199;SDS011;8207;52.494;4.654;2023-09-18T04:39:48;32.03;;;21.07;;
16199;SDS011;8207;52.494;4.654;2023-09-18T04:42:14;27.70;;;18.73;;
16199;SDS011;8207;52.494;4.654;2023-09-18T04:44:39;27.53;;;18.50;;
16199;SDS011;8207;52.494;4.654;2023-09-18T04:47:04;29.17;;;20.27;;
16199;SDS011;8207;52.494;4.654;2023-09-18T04:49:31;28.48;;;17.70;;
16199;SDS011;8207;52.494;4.654;2023-09-18T04:51:56;25.20;;;17.17;;
16199;SDS011;8207;52.494;4.654;2023-09-18T04:54:21;21.95;;;15.30;;
16199;SDS011;8207;52.494;4.654;2023-09-18T04:56:46;26.55;;;17.55;;
16199;SDS011;8207;52.494;4.654;2023-09-18T04:59:12;17.17;;;12.57;;
16199;SDS011;8207;52.494;4.654;2023-09-18T05:01:37;17.88;;;12.55;;
16199;SDS011;8207;52.494;4.654;2023-09-18T05:04:02;16.20;;;12.30;;
16199;SDS011;8207;52.494;4.654;2023-09-18T05:06:27;22.40;;;15.20;;
16199;SDS011;8207;52.494;4.654;2023-09-18T05:08:53;21.13;;;13.85;;
16199;SDS011;8207;52.494;4.654;2023-09-18T05:11:19;19.50;;;13.60;;
16199;SDS011;8207;52.494;4.654;2023-09-18T05:13:44;18.58;;;13.40;;
16199;SDS011;8207;52.494;4.654;2023-09-18T05:16:09;17.17;;;11.95;;
16199;SDS011;8207;52.494;4.654;2023-09-18T05:18:35;17.33;;;11.88;;
16199;SDS011;8207;52.494;4.654;2023-09-18T05:21:01;22.85;;;14.90;;
16199;SDS011;8207;52.494;4.654;2023-09-18T05:23:26;28.45;;;17.17;;
16199;SDS011;8207;52.494;4.654;2023-09-18T05:25:52;23.35;;;15.93;;
16199;SDS011;8207;52.494;4.654;2023-09-18T05:28:18;24.27;;;14.88;;
16199;SDS011;8207;52.494;4.654;2023-09-18T05:30:43;27.05;;;15.85;;
16199;SDS011;8207;52.494;4.654;2023-09-18T05:33:08;22.60;;;14.87;;
16199;SDS011;8207;52.494;4.654;2023-09-18T05:35:34;22.42;;;14.85;;
16199;SDS011;8207;52.494;4.654;2023-09-18T05:38:01;36.47;;;18.23;;
16199;SDS011;8207;52.494;4.654;2023-09-18T05:40:26;42.22;;;21.20;;
16199;SDS011;8207;52.494;4.654;2023-09-18T05:42:52;28.47;;;15.90;;
16199;SDS011;8207;52.494;4.654;2023-09-18T05:45:18;18.25;;;10.80;;
16199;SDS011;8207;52.494;4.654;2023-09-18T05:47:43;17.20;;;9.50;;
16199;SDS011;8207;52.494;4.654;2023-09-18T05:50:09;18.35;;;9.27;;
16199;SDS011;8207;52.494;4.654;2023-09-18T05:52:35;13.02;;;8.27;;
16199;SDS011;8207;52.494;4.654;2023-09-18T05:55:01;15.07;;;7.40;;
16199;SDS011;8207;52.494;4.654;2023-09-18T05:57:26;16.38;;;8.30;;
16199;SDS011;8207;52.494;4.654;2023-09-18T05:59:57;15.95;;;8.95;;
16199;SDS011;8207;52.494;4.654;2023-09-18T06:02:25;15.05;;;8.57;;
16199;SDS011;8207;52.494;4.654;2023-09-18T06:04:54;18.60;;;9.20;;
16199;SDS011;8207;52.494;4.654;2023-09-18T06:07:21;14.00;;;6.80;;
16199;SDS011;8207;52.494;4.654;2023-09-18T06:09:47;13.02;;;6.07;;
16199;SDS011;8207;52.494;4.654;2023-09-18T06:12:13;14.82;;;7.13;;
16199;SDS011;8207;52.494;4.654;2023-09-18T06:14:39;11.23;;;6.65;;
16199;SDS011;8207;52.494;4.654;2023-09-18T06:17:04;9.97;;;6.40;;
16199;SDS011;8207;52.494;4.654;2023-09-18T06:19:31;9.95;;;6.07;;
16199;SDS011;8207;52.494;4.654;2023-09-18T06:21:56;9.45;;;5.57;;
16199;SDS011;8207;52.494;4.654;2023-09-18T06:24:21;10.27;;;6.23;;
16199;SDS011;8207;52.494;4.654;2023-09-18T06:26:46;11.77;;;6.00;;
16199;SDS011;8207;52.494;4.654;2023-09-18T06:29:12;13.38;;;7.00;;
16199;SDS011;8207;52.494;4.654;2023-09-18T06:31:38;12.98;;;6.30;;
16199;SDS011;8207;52.494;4.654;2023-09-18T06:34:03;10.27;;;6.20;;
16199;SDS011;8207;52.494;4.654;2023-09-18T06:36:28;10.83;;;6.60;;
16199;SDS011;8207;52.494;4.654;2023-09-18T06:38:54;10.45;;;6.05;;
16199;SDS011;8207;52.494;4.654;2023-09-18T06:41:19;9.13;;;5.80;;
16199;SDS011;8207;52.494;4.654;2023-09-18T06:43:44;9.37;;;5.37;;
16199;SDS011;8207;52.494;4.654;2023-09-18T06:46:09;13.05;;;7.25;;
16199;SDS011;8207;52.494;4.654;2023-09-18T06:48:35;10.93;;;6.60;;
16199;SDS011;8207;52.494;4.654;2023-09-18T06:51:00;17.20;;;7.70;;
16199;SDS011;8207;52.494;4.654;2023-09-18T06:53:28;15.00;;;7.70;;
16199;SDS011;8207;52.494;4.654;2023-09-18T06:55:54;15.20;;;7.40;;
16199;SDS011;8207;52.494;4.654;2023-09-18T06:58:19;12.73;;;7.57;;
16199;SDS011;8207;52.494;4.654;2023-09-18T07:00:44;17.25;;;9.48;;
16199;SDS011;8207;52.494;4.654;2023-09-18T07:03:10;14.82;;;8.73;;
16199;SDS011;8207;52.494;4.654;2023-09-18T07:05:36;17.23;;;8.82;;
16199;SDS011;8207;52.494;4.654;2023-09-18T07:08:02;16.25;;;9.27;;
16199;SDS011;8207;52.494;4.654;2023-09-18T07:10:27;14.20;;;8.93;;
16199;SDS011;8207;52.494;4.654;2023-09-18T07:12:53;15.63;;;9.00;;
16199;SDS011;8207;52.494;4.654;2023-09-18T07:15:18;18.15;;;10.05;;
16199;SDS011;8207;52.494;4.654;2023-09-18T07:17:43;13.25;;;8.32;;
16199;SDS011;8207;52.494;4.654;2023-09-18T07:20:09;14.10;;;8.90;;
16199;SDS011;8207;52.494;4.654;2023-09-18T07:22:38;13.70;;;8.32;;
16199;SDS011;8207;52.494;4.654;2023-09-18T07:25:04;11.10;;;7.43;;
16199;SDS011;8207;52.494;4.654;2023-09-18T07:27:29;11.10;;;7.00;;
16199;SDS011;8207;52.494;4.654;2023-09-18T07:29:55;12.03;;;7.37;;
16199;SDS011;8207;52.494;4.654;2023-09-18T07:32:20;16.30;;;8.25;;
16199;SDS011;8207;52.494;4.654;2023-09-18T07:34:45;12.87;;;7.57;;
16199;SDS011;8207;52.494;4.654;2023-09-18T07:37:12;13.65;;;8.88;;
16199;SDS011;8207;52.494;4.654;2023-09-18T07:39:37;13.70;;;9.07;;
16199;SDS011;8207;52.494;4.654;2023-09-18T07:42:04;16.77;;;9.88;;
16199;SDS011;8207;52.494;4.654;2023-09-18T07:44:30;14.45;;;9.15;;
16199;SDS011;8207;52.494;4.654;2023-09-18T07:46:55;14.18;;;10.02;;
16199;SDS011;8207;52.494;4.654;2023-09-18T07:49:20;18.00;;;10.80;;
16199;SDS011;8207;52.494;4.654;2023-09-18T07:51:45;11.98;;;8.68;;
16199;SDS011;8207;52.494;4.654;2023-09-18T07:54:13;14.70;;;10.13;;
16199;SDS011;8207;52.494;4.654;2023-09-18T07:56:38;13.07;;;10.00;;
16199;SDS011;8207;52.494;4.654;2023-09-18T07:59:04;15.00;;;9.60;;
16199;SDS011;8207;52.494;4.654;2023-09-18T08:01:30;16.17;;;10.07;;
16199;SDS011;8207;52.494;4.654;2023-09-18T08:03:56;13.88;;;9.43;;
16199;SDS011;8207;52.494;4.654;2023-09-18T08:06:24;14.35;;;11.65;;
16199;SDS011;8207;52.494;4.654;2023-09-18T08:08:51;15.77;;;11.20;;
16199;SDS011;8207;52.494;4.654;2023-09-18T08:11:16;15.10;;;11.40;;
16199;SDS011;8207;52.494;4.654;2023-09-18T08:13:41;20.38;;;12.70;;
16199;SDS011;8207;52.494;4.654;2023-09-18T08:16:07;14.70;;;10.00;;
16199;SDS011;8207;52.494;4.654;2023-09-18T08:18:32;17.35;;;10.73;;
16199;SDS011;8207;52.494;4.654;2023-09-18T08:20:58;14.33;;;9.73;;
16199;SDS011;8207;52.494;4.654;2023-09-18T08:23:26;15.55;;;9.25;;
16199;SDS011;8207;52.494;4.654;2023-09-18T08:25:51;11.95;;;8.10;;
16199;SDS011;8207;52.494;4.654;2023-09-18T08:28:20;11.25;;;7.22;;
16199;SDS011;8207;52.494;4.654;2023-09-18T08:30:45;12.60;;;6.68;;
16199;SDS011;8207;52.494;4.654;2023-09-18T08:33:12;13.07;;;6.13;;
16199;SDS011;8207;52.494;4.654;2023-09-18T08:35:37;7.80;;;5.53;;
16199;SDS011;8207;52.494;4.654;2023-09-18T08:38:04;11.48;;;5.18;;
16199;SDS011;8207;52.494;4.654;2023-09-18T08:40:29;8.75;;;4.60;;
16199;SDS011;8207;52.494;4.654;2023-09-18T08:42:55;6.93;;;4.28;;
16199;SDS011;8207;52.494;4.654;2023-09-18T08:45:31;9.85;;;4.38;;
16199;SDS011;8207;52.494;4.654;2023-09-18T08:48:00;11.55;;;3.95;;
16199;SDS011;8207;52.494;4.654;2023-09-18T08:50:25;7.55;;;3.50;;
16199;SDS011;8207;52.494;4.654;2023-09-18T08:52:51;8.02;;;3.03;;
16199;SDS011;8207;52.494;4.654;2023-09-18T08:55:16;6.32;;;3.35;;
16199;SDS011;8207;52.494;4.654;2023-09-18T08:57:42;7.93;;;3.20;;
16199;SDS011;8207;52.494;4.654;2023-09-18T09:00:10;7.45;;;3.20;;
16199;SDS011;8207;52.494;4.654;2023-09-18T09:02:37;6.28;;;3.15;;
16199;SDS011;8207;52.494;4.654;2023-09-18T09:05:02;7.27;;;3.37;;
16199;SDS011;8207;52.494;4.654;2023-09-18T09:07:28;10.77;;;3.90;;
16199;SDS011;8207;52.494;4.654;2023-09-18T09:09:56;9.35;;;4.03;;
16199;SDS011;8207;52.494;4.654;2023-09-18T09:17:30;8.40;;;3.67;;
16199;SDS011;8207;52.494;4.654;2023-09-18T09:20:07;8.05;;;3.33;;
16199;SDS011;8207;52.494;4.654;2023-09-18T09:22:32;7.90;;;3.45;;
16199;SDS011;8207;52.494;4.654;2023-09-18T09:24:59;11.82;;;3.63;;
16199;SDS011;8207;52.494;4.654;2023-09-18T09:27:24;9.27;;;3.70;;
16199;SDS011;8207;52.494;4.654;2023-09-18T09:30:01;10.23;;;4.20;;
16199;SDS011;8207;52.494;4.654;2023-09-18T09:32:29;9.43;;;3.88;;
16199;SDS011;8207;52.494;4.654;2023-09-18T09:34:59;10.68;;;4.07;;
16199;SDS011;8207;52.494;4.654;2023-09-18T09:37:31;8.55;;;3.67;;
16199;SDS011;8207;52.494;4.654;2023-09-18T09:39:57;8.75;;;3.85;;
16199;SDS011;8207;52.494;4.654;2023-09-18T09:42:24;9.30;;;3.90;;
16199;SDS011;8207;52.494;4.654;2023-09-18T09:45:03;8.88;;;3.80;;
16199;SDS011;8207;52.494;4.654;2023-09-18T09:47:34;10.00;;;4.00;;
16199;SDS011;8207;52.494;4.654;2023-09-18T09:50:04;8.40;;;4.18;;
16199;SDS011;8207;52.494;4.654;2023-09-18T09:52:30;9.52;;;4.00;;
16199;SDS011;8207;52.494;4.654;2023-09-18T09:54:57;10.25;;;4.47;;
16199;SDS011;8207;52.494;4.654;2023-09-18T09:57:23;9.32;;;3.90;;
16199;SDS011;8207;52.494;4.654;2023-09-18T09:59:49;10.07;;;4.53;;
16199;SDS011;8207;52.494;4.654;2023-09-18T10:02:14;8.60;;;4.70;;
16199;SDS011;8207;52.494;4.654;2023-09-18T10:04:44;7.38;;;4.15;;
16199;SDS011;8207;52.494;4.654;2023-09-18T10:07:13;8.52;;;4.95;;
16199;SDS011;8207;52.494;4.654;2023-09-18T10:09:39;8.23;;;4.35;;
16199;SDS011;8207;52.494;4.654;2023-09-18T10:12:11;7.68;;;4.93;;
16199;SDS011;8207;52.494;4.654;2023-09-18T10:14:36;9.70;;;4.60;;
16199;SDS011;8207;52.494;4.654;2023-09-18T10:17:12;8.70;;;4.30;;
16199;SDS011;8207;52.494;4.654;2023-09-18T10:19:40;7.57;;;3.92;;
16199;SDS011;8207;52.494;4.654;2023-09-18T10:22:17;7.65;;;4.10;;
16199;SDS011;8207;52.494;4.654;2023-09-18T10:24:47;6.68;;;4.25;;
16199;SDS011;8207;52.494;4.654;2023-09-18T10:27:15;8.00;;;4.22;;
16199;SDS011;8207;52.494;4.654;2023-09-18T10:29:43;7.40;;;4.25;;
16199;SDS011;8207;52.494;4.654;2023-09-18T10:32:09;10.63;;;4.20;;
16199;SDS011;8207;52.494;4.654;2023-09-18T10:34:35;9.15;;;4.70;;
16199;SDS011;8207;52.494;4.654;2023-09-18T10:37:01;11.18;;;4.85;;
16199;SDS011;8207;52.494;4.654;2023-09-18T10:39:34;9.63;;;4.95;;
16199;SDS011;8207;52.494;4.654;2023-09-18T10:42:00;9.05;;;5.05;;
16199;SDS011;8207;52.494;4.654;2023-09-18T10:44:27;6.82;;;4.90;;
16199;SDS011;8207;52.494;4.654;2023-09-18T10:46:52;8.25;;;4.53;;
16199;SDS011;8207;52.494;4.654;2023-09-18T10:49:18;7.38;;;4.32;;
16199;SDS011;8207;52.494;4.654;2023-09-18T10:51:44;9.85;;;4.47;;
16199;SDS011;8207;52.494;4.654;2023-09-18T10:54:11;7.60;;;4.45;;
16199;SDS011;8207;52.494;4.654;2023-09-18T10:56:40;10.23;;;4.60;;
16199;SDS011;8207;52.494;4.654;2023-09-18T10:59:06;8.15;;;3.90;;
16199;SDS011;8207;52.494;4.654;2023-09-18T11:01:31;6.85;;;3.75;;
16199;SDS011;8207;52.494;4.654;2023-09-18T11:03:57;8.75;;;3.90;;
16199;SDS011;8207;52.494;4.654;2023-09-18T11:06:24;7.35;;;3.10;;
16199;SDS011;8207;52.494;4.654;2023-09-18T11:08:56;7.18;;;3.42;;
16199;SDS011;8207;52.494;4.654;2023-09-18T11:11:26;7.05;;;2.97;;
16199;SDS011;8207;52.494;4.654;2023-09-18T11:13:52;8.43;;;3.10;;
16199;SDS011;8207;52.494;4.654;2023-09-18T11:18:52;4.72;;;2.45;;
16199;SDS011;8207;52.494;4.654;2023-09-18T11:21:18;8.00;;;2.70;;
16199;SDS011;8207;52.494;4.654;2023-09-18T11:23:48;7.85;;;2.97;;
16199;SDS011;8207;52.494;4.654;2023-09-18T11:26:22;6.80;;;2.85;;
16199;SDS011;8207;52.494;4.654;2023-09-18T11:28:47;6.72;;;3.10;;
16199;SDS011;8207;52.494;4.654;2023-09-18T11:31:13;11.23;;;3.50;;
16199;SDS011;8207;52.494;4.654;2023-09-18T11:33:40;6.22;;;3.15;;
16199;SDS011;8207;52.494;4.654;2023-09-18T11:36:09;7.30;;;3.00;;
16199;SDS011;8207;52.494;4.654;2023-09-18T11:38:53;7.95;;;3.30;;
16199;SDS011;8207;52.494;4.654;2023-09-18T11:41:19;6.78;;;3.20;;
16199;SDS011;8207;52.494;4.654;2023-09-18T11:43:45;9.55;;;3.58;;
16199;SDS011;8207;52.494;4.654;2023-09-18T11:46:10;6.82;;;3.03;;
16199;SDS011;8207;52.494;4.654;2023-09-18T11:48:37;6.30;;;3.15;;
16199;SDS011;8207;52.494;4.654;2023-09-18T11:51:06;9.40;;;3.40;;
16199;SDS011;8207;52.494;4.654;2023-09-18T11:53:34;7.35;;;3.00;;
16199;SDS011;8207;52.494;4.654;2023-09-18T11:56:02;8.00;;;3.50;;
16199;SDS011;8207;52.494;4.654;2023-09-18T11:58:28;4.82;;;2.72;;
16199;SDS011;8207;52.494;4.654;2023-09-18T12:00:53;11.23;;;3.10;;
16199;SDS011;8207;52.494;4.654;2023-09-18T12:03:22;8.07;;;2.83;;
16199;SDS011;8207;52.494;4.654;2023-09-18T12:05:54;8.57;;;3.20;;
16199;SDS011;8207;52.494;4.654;2023-09-18T12:08:19;7.55;;;3.15;;
16199;SDS011;8207;52.494;4.654;2023-09-18T12:10:47;9.15;;;3.30;;
16199;SDS011;8207;52.494;4.654;2023-09-18T12:13:13;6.35;;;2.97;;
16199;SDS011;8207;52.494;4.654;2023-09-18T12:15:40;7.47;;;3.30;;
16199;SDS011;8207;52.494;4.654;2023-09-18T12:18:06;7.78;;;3.38;;
16199;SDS011;8207;52.494;4.654;2023-09-18T12:20:31;10.38;;;4.05;;
16199;SDS011;8207;52.494;4.654;2023-09-18T12:22:59;9.63;;;3.10;;
16199;SDS011;8207;52.494;4.654;2023-09-18T12:25:24;6.05;;;2.75;;
16199;SDS011;8207;52.494;4.654;2023-09-18T12:27:52;6.72;;;2.92;;
16199;SDS011;8207;52.494;4.654;2023-09-18T12:30:18;11.05;;;3.35;;
16199;SDS011;8207;52.494;4.654;2023-09-18T12:32:45;8.25;;;3.50;;
16199;SDS011;8207;52.494;4.654;2023-09-18T12:35:13;9.20;;;3.67;;
16199;SDS011;8207;52.494;4.654;2023-09-18T12:37:41;7.50;;;3.55;;
16199;SDS011;8207;52.494;4.654;2023-09-18T12:40:07;6.40;;;3.20;;
16199;SDS011;8207;52.494;4.654;2023-09-18T12:42:39;6.22;;;3.20;;
16199;SDS011;8207;52.494;4.654;2023-09-18T12:45:06;10.32;;;3.40;;
16199;SDS011;8207;52.494;4.654;2023-09-18T12:47:32;6.63;;;3.08;;
16199;SDS011;8207;52.494;4.654;2023-09-18T12:50:01;6.72;;;2.90;;
16199;SDS011;8207;52.494;4.654;2023-09-18T12:52:27;4.43;;;2.78;;
16199;SDS011;8207;52.494;4.654;2023-09-18T12:54:54;6.43;;;3.08;;
16199;SDS011;8207;52.494;4.654;2023-09-18T12:57:21;4.78;;;2.50;;
16199;SDS011;8207;52.494;4.654;2023-09-18T12:59:46;5.75;;;2.60;;
16199;SDS011;8207;52.494;4.654;2023-09-18T13:02:15;6.82;;;2.47;;
16199;SDS011;8207;52.494;4.654;2023-09-18T13:04:41;7.15;;;2.65;;
16199;SDS011;8207;52.494;4.654;2023-09-18T13:07:15;5.50;;;2.40;;
16199;SDS011;8207;52.494;4.654;2023-09-18T13:09:42;5.07;;;2.80;;
16199;SDS011;8207;52.494;4.654;2023-09-18T13:12:08;7.90;;;2.78;;
16199;SDS011;8207;52.494;4.654;2023-09-18T13:17:17;7.93;;;3.08;;
16199;SDS011;8207;52.494;4.654;2023-09-18T13:19:42;4.67;;;2.30;;
16199;SDS011;8207;52.494;4.654;2023-09-18T13:22:07;5.67;;;2.60;;
16199;SDS011;8207;52.494;4.654;2023-09-18T13:24:33;5.18;;;2.30;;
16199;SDS011;8207;52.494;4.654;2023-09-18T13:26:59;5.22;;;2.38;;
16199;SDS011;8207;52.494;4.654;2023-09-18T13:29:24;6.55;;;2.42;;
16199;SDS011;8207;52.494;4.654;2023-09-18T13:31:53;6.80;;;2.50;;
16199;SDS011;8207;52.494;4.654;2023-09-18T13:34:18;5.20;;;2.50;;
16199;SDS011;8207;52.494;4.654;2023-09-18T13:36:44;4.65;;;2.08;;
16199;SDS011;8207;52.494;4.654;2023-09-18T13:39:10;3.45;;;1.90;;
16199;SDS011;8207;52.494;4.654;2023-09-18T13:41:36;4.35;;;1.98;;
16199;SDS011;8207;52.494;4.654;2023-09-18T13:44:02;3.65;;;2.20;;
16199;SDS011;8207;52.494;4.654;2023-09-18T13:46:27;3.63;;;2.30;;
16199;SDS011;8207;52.494;4.654;2023-09-18T13:48:52;3.65;;;2.58;;
16199;SDS011;8207;52.494;4.654;2023-09-18T13:51:17;3.90;;;2.70;;
16199;SDS011;8207;52.494;4.654;2023-09-18T13:53:43;5.05;;;2.70;;
16199;SDS011;8207;52.494;4.654;2023-09-18T13:56:08;5.25;;;2.80;;
16199;SDS011;8207;52.494;4.654;2023-09-18T13:58:33;5.50;;;2.83;;
16199;SDS011;8207;52.494;4.654;2023-09-18T14:01:00;4.95;;;2.90;;
16199;SDS011;8207;52.494;4.654;2023-09-18T14:03:26;7.32;;;2.80;;
16199;SDS011;8207;52.494;4.654;2023-09-18T14:05:51;3.80;;;2.58;;
16199;SDS011;8207;52.494;4.654;2023-09-18T14:08:17;4.10;;;2.60;;
16199;SDS011;8207;52.494;4.654;2023-09-18T14:10:43;4.05;;;2.67;;
16199;SDS011;8207;52.494;4.654;2023-09-18T14:13:08;8.32;;;3.25;;
16199;SDS011;8207;52.494;4.654;2023-09-18T14:15:33;4.47;;;3.45;;
16199;SDS011;8207;52.494;4.654;2023-09-18T14:17:58;4.55;;;2.97;;
16199;SDS011;8207;52.494;4.654;2023-09-18T14:20:24;5.47;;;3.47;;
16199;SDS011;8207;52.494;4.654;2023-09-18T14:22:49;6.35;;;3.40;;
16199;SDS011;8207;52.494;4.654;2023-09-18T14:25:15;5.07;;;3.35;;
16199;SDS011;8207;52.494;4.654;2023-09-18T14:27:40;7.28;;;3.65;;
16199;SDS011;8207;52.494;4.654;2023-09-18T14:30:06;4.85;;;3.42;;
16199;SDS011;8207;52.494;4.654;2023-09-18T14:32:32;8.75;;;4.60;;
16199;SDS011;8207;52.494;4.654;2023-09-18T14:34:58;7.20;;;4.72;;
16199;SDS011;8207;52.494;4.654;2023-09-18T14:37:26;7.55;;;4.43;;
16199;SDS011;8207;52.494;4.654;2023-09-18T14:39:51;6.78;;;4.40;;
16199;SDS011;8207;52.494;4.654;2023-09-18T14:42:17;7.57;;;4.70;;
16199;SDS011;8207;52.494;4.654;2023-09-18T14:44:42;8.30;;;4.10;;
16199;SDS011;8207;52.494;4.654;2023-09-18T14:47:10;6.75;;;3.55;;
16199;SDS011;8207;52.494;4.654;2023-09-18T14:49:35;4.20;;;1.92;;
16199;SDS011;8207;52.494;4.654;2023-09-18T14:52:01;6.00;;;2.70;;